createdAt,value
2023-03-24T00:01:58.655Z,2.77
2023-03-24T00:04:25.443Z,2.70
2023-03-24T00:06:54.035Z,2.13
2023-03-24T00:09:20.716Z,2.50
2023-03-24T00:11:48.628Z,2.40
2023-03-24T00:14:18.617Z,2.40
2023-03-24T00:16:46.741Z,2.60
2023-03-24T00:19:17.015Z,2.80
2023-03-24T00:21:44.461Z,2.30
2023-03-24T00:24:12.688Z,2.30
2023-03-24T00:26:41.096Z,2.40
2023-03-24T00:29:09.728Z,2.57
2023-03-24T00:31:40.004Z,2.30
2023-03-24T00:34:08.781Z,2.43
2023-03-24T00:36:37.312Z,2.63
2023-03-24T00:39:06.128Z,2.40
2023-03-24T00:41:33.839Z,2.73
2023-03-24T00:44:03.800Z,2.37
2023-03-24T00:46:30.865Z,2.80
2023-03-24T00:49:05.665Z,2.60
2023-03-24T00:51:35.815Z,2.70
2023-03-24T00:54:02.917Z,2.73
2023-03-24T00:56:35.843Z,2.77
2023-03-24T00:59:03.437Z,2.40
2023-03-24T01:01:37.717Z,2.40
2023-03-24T01:04:06.208Z,2.50
2023-03-24T01:06:36.565Z,2.63
2023-03-24T01:09:05.544Z,2.43
2023-03-24T01:11:38.602Z,2.50
2023-03-24T01:14:06.165Z,2.77
2023-03-24T01:16:32.968Z,2.77
2023-03-24T01:19:00.549Z,2.87
2023-03-24T01:21:27.223Z,2.47
2023-03-24T01:23:54.536Z,3.20
2023-03-24T01:26:21.414Z,2.70
2023-03-24T01:28:48.443Z,2.50
2023-03-24T01:31:17.396Z,2.50
2023-03-24T01:33:44.235Z,2.37
2023-03-24T01:36:11.562Z,2.30
2023-03-24T01:38:38.608Z,2.70
2023-03-24T01:41:06.283Z,2.80
2023-03-24T01:43:37.391Z,3.57
2023-03-24T01:46:15.447Z,2.30
2023-03-24T01:48:46.625Z,2.87
2023-03-24T01:51:27.228Z,2.40
2023-03-24T01:54:01.912Z,2.90
2023-03-24T01:56:33.239Z,2.40
2023-03-24T01:59:04.420Z,2.60
2023-03-24T02:01:40.814Z,2.60
2023-03-24T02:04:39.648Z,2.50
2023-03-24T02:07:18.613Z,2.33
2023-03-24T02:09:46.170Z,2.40
2023-03-24T02:12:13.696Z,2.63
2023-03-24T02:14:41.798Z,2.27
2023-03-24T02:17:11.526Z,2.57
2023-03-24T02:20:05.596Z,2.93
2023-03-24T02:22:50.829Z,3.30
2023-03-24T02:25:57.519Z,2.10
2023-03-24T02:28:30.262Z,2.40
2023-03-24T02:31:24.903Z,2.20
2023-03-24T02:34:16.607Z,2.50
2023-03-24T02:36:49.690Z,2.43
2023-03-24T02:39:38.183Z,2.80
2023-03-24T02:42:45.328Z,2.40
2023-03-24T02:45:37.631Z,2.30
2023-03-24T02:48:21.380Z,2.63
2023-03-24T02:50:58.893Z,2.60
2023-03-24T02:53:42.455Z,2.80
2023-03-24T02:56:31.817Z,2.97
2023-03-24T02:59:11.182Z,2.33
2023-03-24T03:01:54.121Z,2.53
2023-03-24T03:04:54.929Z,2.43
2023-03-24T03:07:25.070Z,2.80
2023-03-24T03:10:08.691Z,3.00
2023-03-24T03:12:37.568Z,2.57
2023-03-24T03:15:08.537Z,2.77
2023-03-24T03:17:41.935Z,2.73
2023-03-24T03:20:18.420Z,2.60
2023-03-24T03:22:51.776Z,2.77
2023-03-24T03:25:24.581Z,2.80
2023-03-24T03:27:53.501Z,2.83
2023-03-24T03:30:42.152Z,2.90
2023-03-24T03:33:27.805Z,3.07
2023-03-24T03:36:28.541Z,3.30
2023-03-24T03:39:02.671Z,3.00
2023-03-24T03:41:31.848Z,2.87
2023-03-24T03:43:58.604Z,3.50
2023-03-24T03:46:25.891Z,3.10
2023-03-24T03:48:53.235Z,3.17
2023-03-24T03:51:19.979Z,2.80
2023-03-24T03:53:58.416Z,3.37
2023-03-24T03:56:28.220Z,3.03
2023-03-24T03:59:35.035Z,3.50
2023-03-24T04:02:27.916Z,3.30
2023-03-24T04:05:10.752Z,3.20
2023-03-24T04:07:58.204Z,3.53
2023-03-24T04:10:54.576Z,3.70
2023-03-24T04:13:24.506Z,3.60
2023-03-24T04:16:35.527Z,3.40
2023-03-24T04:19:16.688Z,3.47
2023-03-24T04:21:53.987Z,3.57
2023-03-24T04:24:40.463Z,3.20
2023-03-24T04:27:27.155Z,3.40
2023-03-24T04:30:03.317Z,3.50
2023-03-24T04:33:10.441Z,3.43
2023-03-24T04:35:44.064Z,3.10
2023-03-24T04:38:25.940Z,3.53
2023-03-24T04:41:13.648Z,3.37
2023-03-24T04:43:41.930Z,3.70
2023-03-24T04:46:11.018Z,3.73
2023-03-24T04:48:58.432Z,3.33
2023-03-24T04:51:31.627Z,3.50
2023-03-24T04:54:04.528Z,3.80
2023-03-24T04:56:47.945Z,3.63
2023-03-24T04:59:25.783Z,3.60
2023-03-24T05:01:52.731Z,3.30
2023-03-24T05:04:37.583Z,3.57
2023-03-24T05:07:17.735Z,3.10
2023-03-24T05:09:47.728Z,3.77
2023-03-24T05:12:14.850Z,3.40
2023-03-24T05:15:06.480Z,3.57
2023-03-24T05:17:34.154Z,3.40
2023-03-24T05:20:01.545Z,3.67
2023-03-24T05:22:28.178Z,3.40
2023-03-24T05:24:54.864Z,3.60
2023-03-24T05:27:21.487Z,3.50
2023-03-24T05:29:48.444Z,3.73
2023-03-24T05:32:21.461Z,4.03
2023-03-24T05:34:48.356Z,3.77
2023-03-24T05:37:17.476Z,3.60
2023-03-24T05:39:48.533Z,3.80
2023-03-24T05:42:38.111Z,3.83
2023-03-24T05:45:06.552Z,4.23
2023-03-24T05:47:33.347Z,3.50
2023-03-24T05:50:00.177Z,4.13
2023-03-24T05:52:28.918Z,3.70
2023-03-24T05:55:10.352Z,4.00
2023-03-24T05:57:38.474Z,4.10
2023-03-24T06:00:23.466Z,3.90
2023-03-24T06:03:07.703Z,4.13
2023-03-24T06:05:41.683Z,4.13
2023-03-24T06:08:09.968Z,3.30
2023-03-24T06:10:37.348Z,3.27
2023-03-24T06:13:04.651Z,2.80
2023-03-24T06:15:33.213Z,3.00
2023-03-24T06:18:24.216Z,2.90
2023-03-24T06:20:51.036Z,2.63
2023-03-24T06:23:25.984Z,3.10
2023-03-24T06:26:14.293Z,3.17
2023-03-24T06:28:54.671Z,2.80
2023-03-24T06:31:23.994Z,3.20
2023-03-24T06:33:52.369Z,3.47
2023-03-24T06:36:19.556Z,3.53
2023-03-24T06:38:46.581Z,3.00
2023-03-24T06:41:18.777Z,3.17
2023-03-24T06:43:48.315Z,3.20
2023-03-24T06:46:18.461Z,2.40
2023-03-24T06:48:47.083Z,2.50
2023-03-24T06:51:13.909Z,3.00
2023-03-24T06:53:41.482Z,2.60
2023-03-24T06:56:08.364Z,2.23
2023-03-24T06:58:40.902Z,2.07
2023-03-24T07:01:11.447Z,2.00
2023-03-24T07:03:54.701Z,2.00
2023-03-24T07:06:59.901Z,2.07
2023-03-24T07:09:33.656Z,1.87
2023-03-24T07:12:02.236Z,2.37
2023-03-24T07:14:29.025Z,1.77
2023-03-24T07:16:57.080Z,1.90
2023-03-24T07:19:42.764Z,1.90
2023-03-24T07:22:42.107Z,2.03
2023-03-24T07:25:34.797Z,1.90
2023-03-24T07:28:33.884Z,1.70
2023-03-24T07:31:04.755Z,1.83
2023-03-24T07:33:32.000Z,1.60
2023-03-24T07:35:59.508Z,1.70
2023-03-24T07:38:26.786Z,1.80
2023-03-24T07:41:00.999Z,1.60
2023-03-24T07:43:30.464Z,1.67
2023-03-24T07:46:17.129Z,1.77
2023-03-24T07:48:43.991Z,1.90
2023-03-24T07:51:11.099Z,1.83
2023-03-24T07:53:59.326Z,1.90
2023-03-24T07:56:32.333Z,1.80
2023-03-24T07:59:01.402Z,2.10
2023-03-24T08:01:38.474Z,2.00
2023-03-24T08:04:12.481Z,2.30
2023-03-24T08:06:58.653Z,2.27
2023-03-24T08:09:25.618Z,2.63
2023-03-24T08:11:52.415Z,3.07
2023-03-24T08:14:19.138Z,3.00
2023-03-24T08:16:46.441Z,2.70
2023-03-24T08:19:13.197Z,2.83
2023-03-24T08:21:39.886Z,3.47
2023-03-24T08:24:06.977Z,3.23
2023-03-24T08:26:35.496Z,2.80
2023-03-24T08:29:03.162Z,3.07
2023-03-24T08:31:33.936Z,2.77
2023-03-24T08:34:00.787Z,2.83
2023-03-24T08:36:27.644Z,3.30
2023-03-24T08:38:55.734Z,2.67
2023-03-24T08:41:34.803Z,2.77
2023-03-24T08:44:07.202Z,2.73
2023-03-24T08:46:34.764Z,3.00
2023-03-24T08:49:04.491Z,3.13
2023-03-24T08:51:31.752Z,2.77
2023-03-24T08:53:58.686Z,2.97
2023-03-24T08:56:25.988Z,3.00
2023-03-24T08:58:53.935Z,3.23
2023-03-24T09:01:21.541Z,3.13
2023-03-24T09:03:48.818Z,3.40
2023-03-24T09:06:15.987Z,3.53
2023-03-24T09:08:42.778Z,2.70
2023-03-24T09:11:16.916Z,2.93
2023-03-24T09:13:43.627Z,3.03
2023-03-24T09:16:10.742Z,3.17
2023-03-24T09:18:37.680Z,2.83
2023-03-24T09:21:05.997Z,3.33
2023-03-24T09:23:32.718Z,2.90
2023-03-24T09:26:00.204Z,2.73
2023-03-24T09:28:26.927Z,3.20
2023-03-24T09:31:01.381Z,3.30
2023-03-24T09:33:29.966Z,3.50
2023-03-24T09:36:00.086Z,3.47
2023-03-24T09:38:28.651Z,2.70
2023-03-24T09:40:58.017Z,3.10
2023-03-24T09:43:33.074Z,3.07
2023-03-24T09:46:02.090Z,3.80
2023-03-24T09:48:47.382Z,3.23
2023-03-24T09:51:25.435Z,3.40
2023-03-24T09:54:05.287Z,3.00
2023-03-24T09:56:34.062Z,3.17
2023-03-24T09:59:12.702Z,3.77
2023-03-24T10:01:39.389Z,3.37
2023-03-24T10:04:14.658Z,3.47
2023-03-24T10:06:42.530Z,3.10
2023-03-24T10:09:23.973Z,2.97
2023-03-24T10:12:21.913Z,3.00
2023-03-24T10:15:07.278Z,3.50
2023-03-24T10:17:39.974Z,3.27
2023-03-24T10:20:24.356Z,3.00
2023-03-24T10:23:08.825Z,3.47
2023-03-24T10:26:05.935Z,3.47
2023-03-24T10:28:41.553Z,3.07
2023-03-24T10:31:12.072Z,3.07
2023-03-24T10:33:42.695Z,3.50
2023-03-24T10:36:21.152Z,3.43
2023-03-24T10:38:48.137Z,2.83
2023-03-24T10:41:26.040Z,2.90
2023-03-24T10:43:54.310Z,2.77
2023-03-24T10:46:24.736Z,2.50
2023-03-24T10:49:19.848Z,2.30
2023-03-24T10:51:49.598Z,3.17
2023-03-24T10:54:27.029Z,2.43
2023-03-24T10:57:03.743Z,2.40
2023-03-24T10:59:38.470Z,2.60
2023-03-24T11:02:17.262Z,2.37
2023-03-24T11:04:55.162Z,2.20
2023-03-24T11:07:23.700Z,2.20
2023-03-24T11:10:19.097Z,2.77
2023-03-24T11:12:54.933Z,2.27
2023-03-24T11:15:30.562Z,2.10
2023-03-24T11:18:12.709Z,2.10
2023-03-24T11:20:41.565Z,2.30
2023-03-24T11:23:19.960Z,1.87
2023-03-24T11:26:23.138Z,2.87
2023-03-24T11:28:53.581Z,2.07
2023-03-24T11:31:32.933Z,2.50
2023-03-24T11:34:03.695Z,2.40
2023-03-24T11:36:30.728Z,2.03
2023-03-24T11:39:17.917Z,2.40
2023-03-24T11:42:03.430Z,2.10
2023-03-24T11:44:33.127Z,2.10
2023-03-24T11:47:05.027Z,2.80
2023-03-24T11:49:42.226Z,2.30
2023-03-24T11:52:18.387Z,2.03
2023-03-24T11:54:45.265Z,2.20
2023-03-24T11:57:13.945Z,1.97
2023-03-24T11:59:40.584Z,2.20
2023-03-24T12:02:28.869Z,2.10
2023-03-24T12:05:16.984Z,2.00
2023-03-24T12:07:49.807Z,2.17
2023-03-24T12:10:19.431Z,2.40
2023-03-24T12:12:58.481Z,2.40
2023-03-24T12:15:36.808Z,2.50
2023-03-24T12:18:42.436Z,2.33
2023-03-24T12:21:29.721Z,1.90
2023-03-24T12:23:58.241Z,2.10
2023-03-24T12:26:28.198Z,2.10
2023-03-24T12:28:58.323Z,2.47
2023-03-24T12:31:32.859Z,1.90
2023-03-24T12:34:08.083Z,1.70
2023-03-24T12:36:53.076Z,1.70
2023-03-24T12:39:29.360Z,1.73
2023-03-24T12:42:10.862Z,1.93
2023-03-24T12:44:43.631Z,2.10
2023-03-24T12:47:47.452Z,1.67
2023-03-24T12:50:49.691Z,1.87
2023-03-24T12:53:25.620Z,1.80
2023-03-24T12:55:58.459Z,1.90
2023-03-24T12:59:06.513Z,2.07
2023-03-24T13:01:35.799Z,1.90
2023-03-24T13:04:17.479Z,1.80
2023-03-24T13:06:58.642Z,2.10
2023-03-24T13:09:47.903Z,2.13
2023-03-24T13:12:21.365Z,2.10
2023-03-24T13:15:09.590Z,2.03
2023-03-24T13:17:42.801Z,2.07
2023-03-24T13:20:17.200Z,2.30
2023-03-24T13:22:44.368Z,2.60
2023-03-24T13:25:32.709Z,2.10
2023-03-24T13:28:04.426Z,2.27
2023-03-24T13:30:32.365Z,1.77
2023-03-24T13:33:17.499Z,1.80
2023-03-24T13:36:02.457Z,2.00
2023-03-24T13:38:29.102Z,2.10
2023-03-24T13:40:56.452Z,2.60
2023-03-24T13:43:25.463Z,1.97
2023-03-24T13:45:59.483Z,2.00
2023-03-24T13:48:33.550Z,1.87
2023-03-24T13:51:12.422Z,2.53
2023-03-24T13:54:01.165Z,2.17
2023-03-24T13:56:37.842Z,2.10
2023-03-24T13:59:10.383Z,2.63
2023-03-24T14:01:45.411Z,2.20
2023-03-24T14:04:44.963Z,2.17
2023-03-24T14:07:30.719Z,1.70
2023-03-24T14:10:00.176Z,1.73
2023-03-24T14:12:27.347Z,1.70
2023-03-24T14:15:19.290Z,2.00
2023-03-24T14:17:48.229Z,1.57
2023-03-24T14:20:32.657Z,1.70
2023-03-24T14:22:59.496Z,2.27
2023-03-24T14:25:30.992Z,2.03
2023-03-24T14:28:20.037Z,1.80
2023-03-24T14:31:18.362Z,1.90
2023-03-24T14:34:02.321Z,1.80
2023-03-24T14:36:31.447Z,1.97
2023-03-24T14:39:17.753Z,2.00
2023-03-24T14:41:45.495Z,1.80
2023-03-24T14:44:12.668Z,2.37
2023-03-24T14:46:47.560Z,2.37
2023-03-24T14:49:23.639Z,2.30
2023-03-24T14:52:11.542Z,2.07
2023-03-24T14:54:47.785Z,2.60
2023-03-24T14:57:39.373Z,2.50
2023-03-24T15:00:15.761Z,2.30
2023-03-24T15:02:47.313Z,1.90
2023-03-24T15:05:13.939Z,2.33
2023-03-24T15:07:41.922Z,2.07
2023-03-24T15:10:19.217Z,1.97
2023-03-24T15:12:47.905Z,2.20
2023-03-24T15:15:21.389Z,2.03
2023-03-24T15:17:51.424Z,2.20
2023-03-24T15:20:35.180Z,1.93
2023-03-24T15:23:07.604Z,2.63
2023-03-24T15:25:34.361Z,2.30
2023-03-24T15:28:12.927Z,2.37
2023-03-24T15:30:39.669Z,2.53
2023-03-24T15:33:06.585Z,2.57
2023-03-24T15:35:35.897Z,2.80
2023-03-24T15:38:04.059Z,2.50
2023-03-24T15:40:32.479Z,2.20
2023-03-24T15:43:08.009Z,2.97
2023-03-24T15:45:44.505Z,1.90
2023-03-24T15:48:17.273Z,2.20
2023-03-24T15:51:05.399Z,1.90
2023-03-24T15:53:43.995Z,2.10
2023-03-24T15:56:36.301Z,1.70
2023-03-24T15:59:06.009Z,1.90
2023-03-24T16:01:36.478Z,1.43
2023-03-24T16:04:08.350Z,1.73
2023-03-24T16:06:35.931Z,2.10
2023-03-24T16:09:09.499Z,1.73
2023-03-24T16:11:36.276Z,2.03
2023-03-24T16:14:17.413Z,1.90
2023-03-24T16:16:44.401Z,1.90
2023-03-24T16:19:11.141Z,1.87
2023-03-24T16:21:37.793Z,1.83
2023-03-24T16:24:04.750Z,1.80
2023-03-24T16:26:32.829Z,1.90
2023-03-24T16:29:20.601Z,1.80
2023-03-24T16:31:49.446Z,1.90
2023-03-24T16:34:25.593Z,1.80
2023-03-24T16:36:54.308Z,1.67
2023-03-24T16:39:23.839Z,1.90
2023-03-24T16:41:51.118Z,1.40
2023-03-24T16:44:21.143Z,1.60
2023-03-24T16:46:51.227Z,1.70
2023-03-24T16:49:22.884Z,1.60
2023-03-24T16:51:50.186Z,1.43
2023-03-24T16:54:17.052Z,1.47
2023-03-24T16:56:43.768Z,1.53
2023-03-24T16:59:12.540Z,1.50
2023-03-24T17:01:41.608Z,1.70
2023-03-24T17:04:13.219Z,1.50
2023-03-24T17:06:42.740Z,1.67
2023-03-24T17:09:10.101Z,1.30
2023-03-24T17:11:42.274Z,1.80
2023-03-24T17:14:12.395Z,1.80
2023-03-24T17:16:43.685Z,1.80
2023-03-24T17:19:15.452Z,1.60
2023-03-24T17:21:45.954Z,1.93
2023-03-24T17:24:13.665Z,1.50
2023-03-24T17:26:41.292Z,1.63
2023-03-24T17:29:11.399Z,1.70
2023-03-24T17:31:38.160Z,1.70
2023-03-24T17:34:15.116Z,1.70
2023-03-24T17:36:51.839Z,1.70
2023-03-24T17:39:19.768Z,1.97
2023-03-24T17:41:46.432Z,1.93
2023-03-24T17:44:13.249Z,2.00
2023-03-24T17:46:39.968Z,2.70
2023-03-24T17:49:06.920Z,2.17
2023-03-24T17:51:34.113Z,2.27
2023-03-24T17:54:04.204Z,2.17
2023-03-24T17:56:31.328Z,2.00
2023-03-24T17:58:59.557Z,1.90
2023-03-24T18:01:29.441Z,2.10
2023-03-24T18:03:57.669Z,2.37
2023-03-24T18:06:24.884Z,2.23
2023-03-24T18:08:52.179Z,2.37
2023-03-24T18:11:18.953Z,2.10
2023-03-24T18:13:45.727Z,2.47
2023-03-24T18:16:21.485Z,2.20
2023-03-24T18:18:50.323Z,1.90
2023-03-24T18:21:17.645Z,3.00
2023-03-24T18:23:46.680Z,2.00
2023-03-24T18:26:15.809Z,2.10
2023-03-24T18:28:42.943Z,2.33
2023-03-24T18:31:15.746Z,2.47
2023-03-24T18:33:46.011Z,2.47
2023-03-24T18:36:16.512Z,2.40
2023-03-24T18:38:44.096Z,3.43
2023-03-24T18:41:12.916Z,2.70
2023-03-24T18:43:44.957Z,2.30
2023-03-24T18:46:11.834Z,3.37
2023-03-24T18:48:40.174Z,2.50
2023-03-24T18:51:06.854Z,2.50
2023-03-24T18:53:36.980Z,3.07
2023-03-24T18:56:05.463Z,3.30
2023-03-24T18:58:32.322Z,3.43
2023-03-24T19:01:01.137Z,3.90
2023-03-24T19:03:28.909Z,3.53
2023-03-24T19:06:00.776Z,3.60
2023-03-24T19:08:27.663Z,4.10
2023-03-24T19:10:54.979Z,3.40
2023-03-24T19:13:21.623Z,3.37
2023-03-24T19:15:49.129Z,3.07
2023-03-24T19:18:16.192Z,3.00
2023-03-24T19:20:43.003Z,3.40
2023-03-24T19:23:09.736Z,5.10
2023-03-24T19:25:36.466Z,3.43
2023-03-24T19:28:03.288Z,3.60
2023-03-24T19:30:29.968Z,4.13
2023-03-24T19:32:56.939Z,4.60
2023-03-24T19:35:24.331Z,3.80
2023-03-24T19:37:51.069Z,3.53
2023-03-24T19:40:17.946Z,3.80
2023-03-24T19:42:45.110Z,3.70
2023-03-24T19:45:16.293Z,3.03
2023-03-24T19:47:46.233Z,3.87
2023-03-24T19:50:14.820Z,3.23
2023-03-24T19:52:46.049Z,3.10
2023-03-24T19:55:12.894Z,2.97
2023-03-24T19:57:39.814Z,3.30
2023-03-24T20:00:10.243Z,2.77
2023-03-24T20:02:38.242Z,2.87
2023-03-24T20:05:06.936Z,2.67
2023-03-24T20:07:34.871Z,2.40
2023-03-24T20:10:01.551Z,2.57
2023-03-24T20:12:28.359Z,2.30
2023-03-24T20:14:55.073Z,2.90
2023-03-24T20:17:23.058Z,3.27
2023-03-24T20:19:50.741Z,3.17
2023-03-24T20:22:17.667Z,2.30
2023-03-24T20:24:44.612Z,2.60
2023-03-24T20:27:11.756Z,2.60
2023-03-24T20:29:39.924Z,3.03
2023-03-24T20:32:10.075Z,2.30
2023-03-24T20:34:38.235Z,2.17
2023-03-24T20:37:05.725Z,2.10
2023-03-24T20:39:33.490Z,2.80
2023-03-24T20:42:00.933Z,3.13
2023-03-24T20:44:28.054Z,2.70
2023-03-24T20:46:57.193Z,2.57
2023-03-24T20:49:24.425Z,2.40
2023-03-24T20:51:51.594Z,2.30
2023-03-24T20:54:18.316Z,2.40
2023-03-24T20:56:45.980Z,2.53
2023-03-24T20:59:13.797Z,2.40
2023-03-24T21:01:41.988Z,2.03
2023-03-24T21:04:10.084Z,2.90
2023-03-24T21:06:40.648Z,2.83
2023-03-24T21:09:07.306Z,2.77
2023-03-24T21:11:36.883Z,2.23
2023-03-24T21:14:03.800Z,2.40
2023-03-24T21:16:35.804Z,2.20
2023-03-24T21:19:03.764Z,2.60
2023-03-24T21:21:32.157Z,2.50
2023-03-24T21:23:59.302Z,2.40
2023-03-24T21:26:26.018Z,2.40
2023-03-24T21:28:53.070Z,2.53
2023-03-24T21:31:21.625Z,2.73
2023-03-24T21:33:49.213Z,2.07
2023-03-24T21:36:16.746Z,2.40
2023-03-24T21:38:43.453Z,2.63
2023-03-24T21:41:11.543Z,2.50
2023-03-24T21:43:40.387Z,2.40
2023-03-24T21:46:14.763Z,2.30
2023-03-24T21:48:51.466Z,2.23
2023-03-24T21:51:19.793Z,2.77
2023-03-24T21:53:47.683Z,2.60
2023-03-24T21:56:14.742Z,2.63
2023-03-24T21:58:41.629Z,2.63
2023-03-24T22:01:09.048Z,2.63
2023-03-24T22:03:37.449Z,2.33
2023-03-24T22:06:05.623Z,2.50
2023-03-24T22:08:32.524Z,2.60
2023-03-24T22:11:01.063Z,2.30
2023-03-24T22:13:28.763Z,2.20
2023-03-24T22:15:57.298Z,1.90
2023-03-24T22:18:25.591Z,2.03
2023-03-24T22:20:55.337Z,2.00
2023-03-24T22:23:22.949Z,2.03
2023-03-24T22:25:52.631Z,2.70
2023-03-24T22:28:20.093Z,2.50
2023-03-24T22:30:46.940Z,2.50
2023-03-24T22:33:13.795Z,2.00
2023-03-24T22:35:40.866Z,2.30
2023-03-24T22:38:07.858Z,2.20
2023-03-24T22:40:35.377Z,2.10
2023-03-24T22:43:02.016Z,2.20
2023-03-24T22:45:28.661Z,2.00
2023-03-24T22:47:55.524Z,1.90
2023-03-24T22:50:22.481Z,2.47
2023-03-24T22:52:49.124Z,2.00
2023-03-24T22:55:15.998Z,2.10
2023-03-24T22:57:44.645Z,1.90
2023-03-24T23:00:14.697Z,2.10
2023-03-24T23:02:41.558Z,2.20
2023-03-24T23:05:08.558Z,2.00
2023-03-24T23:07:35.359Z,1.87
2023-03-24T23:10:02.137Z,1.90
2023-03-24T23:12:29.098Z,2.23
2023-03-24T23:14:56.004Z,2.50
2023-03-24T23:17:25.843Z,1.80
2023-03-24T23:19:53.493Z,1.80
2023-03-24T23:22:21.358Z,2.00
2023-03-24T23:24:48.873Z,2.00
2023-03-24T23:27:16.290Z,1.90
2023-03-24T23:29:42.885Z,1.73
2023-03-24T23:32:09.570Z,2.40
2023-03-24T23:34:38.168Z,2.10
2023-03-24T23:37:04.998Z,2.03
2023-03-24T23:39:36.792Z,2.13
2023-03-24T23:42:05.897Z,2.17
2023-03-24T23:44:32.859Z,1.80
2023-03-24T23:46:59.487Z,1.93
2023-03-24T23:49:26.288Z,2.10
2023-03-24T23:51:52.925Z,2.03
2023-03-24T23:54:19.593Z,1.90
2023-03-24T23:56:47.249Z,2.10
2023-03-24T23:59:14.376Z,2.30
